createdAt,value
2024-01-11T00:01:36.971Z,16.10
2024-01-11T00:06:43.269Z,19.80
2024-01-11T00:11:44.696Z,17.10
2024-01-11T00:16:46.094Z,16.57
2024-01-11T00:21:49.872Z,16.55
2024-01-11T00:26:51.216Z,18.60
2024-01-11T00:31:52.631Z,18.20
2024-01-11T00:36:54.052Z,18.17
2024-01-11T00:41:55.983Z,17.13
2024-01-11T00:46:57.385Z,16.65
2024-01-11T00:51:58.846Z,14.95
2024-01-11T00:57:00.189Z,15.20
2024-01-11T01:02:01.637Z,16.17
2024-01-11T01:07:02.981Z,16.37
2024-01-11T01:12:04.514Z,17.20
2024-01-11T01:17:06.410Z,16.02
2024-01-11T01:22:07.850Z,15.50
2024-01-11T01:27:09.159Z,15.40
2024-01-11T01:32:10.678Z,15.87
2024-01-11T01:37:12.097Z,15.68
2024-01-11T01:42:13.449Z,16.60
2024-01-11T01:47:14.939Z,16.48
2024-01-11T01:52:17.325Z,17.60
2024-01-11T01:57:19.908Z,17.03
2024-01-11T02:02:21.652Z,17.48
2024-01-11T02:07:23.217Z,17.70
2024-01-11T02:12:24.752Z,15.98
2024-01-11T02:17:26.106Z,17.27
2024-01-11T02:22:35.386Z,16.10
2024-01-11T02:27:46.757Z,16.92
2024-01-11T02:32:49.473Z,16.02
2024-01-11T02:37:51.418Z,17.50
2024-01-11T02:42:52.891Z,16.52
2024-01-11T02:47:54.450Z,16.10
2024-01-11T02:52:55.879Z,17.92
2024-01-11T02:57:57.220Z,16.55
2024-01-11T03:02:58.560Z,16.45
2024-01-11T03:07:59.916Z,16.48
2024-01-11T03:13:01.388Z,16.10
2024-01-11T03:18:02.963Z,16.20
2024-01-11T03:23:04.439Z,17.45
2024-01-11T03:28:05.876Z,16.40
2024-01-11T03:33:07.748Z,17.08
2024-01-11T03:38:09.228Z,16.50
2024-01-11T03:43:10.610Z,17.25
2024-01-11T03:48:12.085Z,16.20
2024-01-11T03:53:13.469Z,16.73
2024-01-11T03:58:15.223Z,16.67
2024-01-11T04:03:16.549Z,17.23
2024-01-11T04:08:17.938Z,17.10
2024-01-11T04:13:20.037Z,17.30
2024-01-11T04:18:22.251Z,16.48
2024-01-11T04:23:23.688Z,17.40
2024-01-11T04:28:24.996Z,17.57
2024-01-11T04:33:26.486Z,17.98
2024-01-11T04:38:27.925Z,15.25
2024-01-11T04:43:29.276Z,15.65
2024-01-11T04:48:30.644Z,15.77
2024-01-11T04:53:32.143Z,16.13
2024-01-11T04:58:33.606Z,16.55
2024-01-11T05:03:35.210Z,17.23
2024-01-11T05:08:36.700Z,17.73
2024-01-11T05:13:38.063Z,19.40
2024-01-11T05:18:39.533Z,17.17
2024-01-11T05:23:44.288Z,19.02
2024-01-11T05:28:45.784Z,17.80
2024-01-11T05:33:48.064Z,18.38
2024-01-11T05:38:49.877Z,17.77
2024-01-11T05:43:51.279Z,17.73
2024-01-11T05:48:52.669Z,18.67
2024-01-11T05:53:54.029Z,18.15
2024-01-11T05:58:55.435Z,17.13
2024-01-11T06:03:56.775Z,16.85
2024-01-11T06:08:58.129Z,17.07
2024-01-11T06:13:59.547Z,18.08
2024-01-11T06:19:00.954Z,16.98
2024-01-11T06:24:02.424Z,19.17
2024-01-11T06:29:06.859Z,20.13
2024-01-11T06:34:08.213Z,18.73
2024-01-11T06:39:10.464Z,18.77
2024-01-11T06:44:11.904Z,21.35
2024-01-11T06:49:14.340Z,19.98
2024-01-11T06:54:15.678Z,20.65
2024-01-11T06:59:17.030Z,21.13
2024-01-11T07:04:21.577Z,20.92
2024-01-11T07:09:22.959Z,19.88
2024-01-11T07:14:24.402Z,20.77
2024-01-11T07:19:25.838Z,18.58
2024-01-11T07:24:27.463Z,19.20
2024-01-11T07:29:28.863Z,18.48
2024-01-11T07:34:30.375Z,19.42
2024-01-11T07:39:32.158Z,20.73
2024-01-11T07:44:33.609Z,22.95
2024-01-11T07:49:35.053Z,18.03
2024-01-11T07:54:36.478Z,20.08
2024-01-11T07:59:38.558Z,19.75
2024-01-11T08:04:40.081Z,18.70
2024-01-11T08:09:46.215Z,18.20
2024-01-11T08:14:48.104Z,18.30
2024-01-11T08:19:49.524Z,16.83
2024-01-11T08:24:51.131Z,17.30
2024-01-11T08:29:52.517Z,17.77
2024-01-11T08:34:53.916Z,31.45
2024-01-11T08:39:55.277Z,19.67
2024-01-11T08:44:57.342Z,17.08
2024-01-11T08:49:59.625Z,16.90
2024-01-11T08:55:00.996Z,21.83
2024-01-11T09:00:05.089Z,16.92
2024-01-11T09:05:08.387Z,17.87
2024-01-11T09:10:12.377Z,16.50
2024-01-11T09:15:13.964Z,16.45
2024-01-11T09:20:15.745Z,15.52
2024-01-11T09:25:17.227Z,15.50
2024-01-11T09:30:18.622Z,16.10
2024-01-11T09:35:20.081Z,17.67
2024-01-11T09:40:21.532Z,16.60
2024-01-11T09:45:22.904Z,15.60
2024-01-11T09:50:25.055Z,16.02
2024-01-11T09:55:26.444Z,16.80
2024-01-11T10:00:28.805Z,17.67
2024-01-11T10:05:30.745Z,16.95
2024-01-11T10:10:32.971Z,17.88
2024-01-11T10:15:34.311Z,17.42
2024-01-11T10:20:35.842Z,18.07
2024-01-11T10:25:37.339Z,19.10
2024-01-11T10:30:40.521Z,19.02
2024-01-11T10:35:42.276Z,17.70
2024-01-11T10:40:44.243Z,17.17
2024-01-11T10:45:46.137Z,18.20
2024-01-11T10:50:50.573Z,17.13
2024-01-11T10:55:52.073Z,17.95
2024-01-11T11:00:55.578Z,21.15
2024-01-11T11:05:57.864Z,20.05
2024-01-11T11:10:59.776Z,19.37
2024-01-11T11:16:02.351Z,18.52
2024-01-11T11:21:07.888Z,18.83
2024-01-11T11:26:15.140Z,18.05
2024-01-11T11:31:35.579Z,17.40
2024-01-11T11:36:36.995Z,20.00
2024-01-11T11:41:39.984Z,18.65
2024-01-11T11:46:41.620Z,18.75
2024-01-11T11:51:44.294Z,18.13
2024-01-11T11:56:46.321Z,18.48
2024-01-11T12:01:47.835Z,18.73
2024-01-11T12:06:49.382Z,19.63
2024-01-11T12:11:58.188Z,18.90
2024-01-11T12:17:08.373Z,19.55
2024-01-11T12:22:09.776Z,19.40
2024-01-11T12:27:11.168Z,20.07
2024-01-11T12:32:12.958Z,19.02
2024-01-11T12:37:16.148Z,18.75
2024-01-11T12:42:17.823Z,18.63
2024-01-11T12:47:19.196Z,18.15
2024-01-11T12:52:20.660Z,18.30
2024-01-11T12:57:22.347Z,18.52
2024-01-11T13:02:24.418Z,18.27
2024-01-11T13:07:25.997Z,18.13
2024-01-11T13:12:27.280Z,17.27
2024-01-11T13:17:28.895Z,16.87
2024-01-11T13:22:30.226Z,18.90
2024-01-11T13:27:32.577Z,18.73
2024-01-11T13:32:34.110Z,17.85
2024-01-11T13:37:35.634Z,17.52
2024-01-11T13:42:36.987Z,18.13
2024-01-11T13:47:38.452Z,16.50
2024-01-11T13:52:40.153Z,16.60
2024-01-11T13:57:42.956Z,18.48
2024-01-11T14:02:44.432Z,18.35
2024-01-11T14:07:46.285Z,14.50
2024-01-11T14:12:47.696Z,14.90
2024-01-11T14:17:49.648Z,14.25
2024-01-11T14:22:51.528Z,15.40
2024-01-11T14:27:54.053Z,14.75
2024-01-11T14:32:55.728Z,14.63
2024-01-11T14:37:57.204Z,14.55
2024-01-11T14:42:58.617Z,14.45
2024-01-11T14:48:00.175Z,16.00
2024-01-11T14:53:01.669Z,15.00
2024-01-11T14:58:03.012Z,15.87
2024-01-11T15:03:05.763Z,15.80
2024-01-11T15:08:07.260Z,15.40
2024-01-11T15:13:08.870Z,15.27
2024-01-11T15:18:10.688Z,17.42
2024-01-11T15:23:12.598Z,17.40
2024-01-11T15:28:13.945Z,16.27
2024-01-11T15:33:15.983Z,16.60
2024-01-11T15:38:17.513Z,24.23
2024-01-11T15:43:18.947Z,19.13
2024-01-11T15:48:20.453Z,19.07
2024-01-11T15:53:22.214Z,19.08
2024-01-11T15:58:23.502Z,20.83
2024-01-11T16:03:24.947Z,19.13
2024-01-11T16:08:26.365Z,20.75
2024-01-11T16:13:27.785Z,19.83
2024-01-11T16:18:29.179Z,21.75
2024-01-11T16:23:32.939Z,21.40
2024-01-11T16:28:34.331Z,21.20
2024-01-11T16:33:35.822Z,21.08
2024-01-11T16:38:38.389Z,24.77
2024-01-11T16:43:40.222Z,25.33
2024-01-11T16:48:41.706Z,22.25
2024-01-11T16:53:44.289Z,30.27
2024-01-11T16:58:45.901Z,29.55
2024-01-11T17:03:47.301Z,18.80
2024-01-11T17:08:49.522Z,20.42
2024-01-11T17:13:51.698Z,22.05
2024-01-11T17:18:53.160Z,28.88
2024-01-11T17:23:54.592Z,26.17
2024-01-11T17:28:56.163Z,25.20
2024-01-11T17:33:57.754Z,24.55
2024-01-11T17:39:00.472Z,26.15
2024-01-11T17:44:02.638Z,26.92
2024-01-11T17:49:04.095Z,32.53
2024-01-11T17:54:05.599Z,31.03
2024-01-11T17:59:08.994Z,24.15
2024-01-11T18:04:10.430Z,23.17
2024-01-11T18:09:11.881Z,28.08
2024-01-11T18:14:13.953Z,32.58
2024-01-11T18:19:15.511Z,31.43
2024-01-11T18:24:18.407Z,26.95
2024-01-11T18:29:22.886Z,27.38
2024-01-11T18:34:24.472Z,24.58
2024-01-11T18:39:25.951Z,27.67
2024-01-11T18:44:27.296Z,26.50
2024-01-11T18:49:28.698Z,30.80
2024-01-11T18:54:30.108Z,29.17
2024-01-11T18:59:31.543Z,26.30
2024-01-11T19:04:33.544Z,24.20
2024-01-11T19:09:34.951Z,23.53
2024-01-11T19:14:36.401Z,22.60
2024-01-11T19:19:37.916Z,25.40
2024-01-11T19:24:39.267Z,26.83
2024-01-11T19:29:40.707Z,26.90
2024-01-11T19:34:43.396Z,26.43
2024-01-11T19:39:44.845Z,27.23
2024-01-11T19:44:46.268Z,28.45
2024-01-11T19:49:47.741Z,28.40
2024-01-11T19:54:49.170Z,28.02
2024-01-11T19:59:50.807Z,25.13
2024-01-11T20:04:52.518Z,24.58
2024-01-11T20:09:53.822Z,23.98
2024-01-11T20:14:55.227Z,23.20
2024-01-11T20:19:56.902Z,26.25
2024-01-11T20:24:58.316Z,24.37
2024-01-11T20:30:01.850Z,30.48
2024-01-11T20:35:03.736Z,27.70
2024-01-11T20:40:06.141Z,26.50
2024-01-11T20:45:07.718Z,24.90
2024-01-11T20:50:09.338Z,27.47
2024-01-11T20:55:10.877Z,30.23
2024-01-11T21:00:12.549Z,28.55
2024-01-11T21:05:14.015Z,26.65
2024-01-11T21:10:15.430Z,27.38
2024-01-11T21:15:16.836Z,24.97
2024-01-11T21:20:18.161Z,23.38
2024-01-11T21:25:20.692Z,24.70
2024-01-11T21:30:22.175Z,24.52
2024-01-11T21:35:23.707Z,23.48
2024-01-11T21:40:25.063Z,26.70
2024-01-11T21:45:26.622Z,24.25
2024-01-11T21:50:27.976Z,25.05
2024-01-11T21:55:31.520Z,26.52
2024-01-11T22:00:33.031Z,26.80
2024-01-11T22:05:35.700Z,25.37
2024-01-11T22:10:37.246Z,23.70
2024-01-11T22:15:38.927Z,22.98
2024-01-11T22:20:40.410Z,24.17
2024-01-11T22:25:41.851Z,26.27
2024-01-11T22:30:43.327Z,26.30
2024-01-11T22:35:44.724Z,25.55
2024-01-11T22:40:46.151Z,25.13
2024-01-11T22:45:47.471Z,22.33
2024-01-11T22:50:48.897Z,23.35
2024-01-11T22:55:50.264Z,23.93
2024-01-11T23:00:54.044Z,23.77
2024-01-11T23:05:55.828Z,23.42
2024-01-11T23:10:57.172Z,23.95
2024-01-11T23:15:58.543Z,25.55
2024-01-11T23:20:59.973Z,24.13
2024-01-11T23:26:01.371Z,25.42
2024-01-11T23:31:02.839Z,24.73
2024-01-11T23:36:04.375Z,23.83
2024-01-11T23:41:06.099Z,24.60
2024-01-11T23:46:07.449Z,22.57
2024-01-11T23:51:08.881Z,22.75
2024-01-11T23:56:10.290Z,24.80
